Time;durP1;ratioP1;P1;durP2;ratioP2;P2;SDS_P1;SDS_P2;PMS_P1;PMS_P2;Temp;Humidity;BMP_temperature;BMP_pressure;BME280_temperature;BME280_humidity;BME280_pressure;Samples;Min_cycle;Max_cycle;Signal;HPM_P1;HPM_P2
2023/10/22 00:00:44;;;;;;;;;;;23.40;55.60;;;;;;5093333;28;19935;-57
2023/10/22 00:03:11;;;;;;;;;;;23.40;55.60;;;;;;5093232;28;20425;-58
2023/10/22 00:05:38;;;;;;;;;;;23.40;55.60;;;;;;5093628;28;19978;-57
2023/10/22 00:08:05;;;;;;;;;;;23.40;55.70;;;;;;5093678;28;20007;-58
2023/10/22 00:10:32;;;;;;;;;;;23.40;55.70;;;;;;5093399;28;20018;-57
2023/10/22 00:12:59;;;;;;;;;;;23.40;55.70;;;;;;5093212;28;19977;-57
2023/10/22 00:15:27;;;;;;;;;;;23.40;55.70;;;;;;5093166;28;19924;-57
2023/10/22 00:17:54;;;;;;;;;;;23.40;55.70;;;;;;5093111;28;19982;-57
2023/10/22 00:20:21;;;;;;;;;;;23.40;55.70;;;;;;5093194;28;20027;-57
2023/10/22 00:22:48;;;;;;;;;;;23.40;55.70;;;;;;5093198;28;19928;-57
2023/10/22 00:25:15;;;;;;;;;;;23.40;55.70;;;;;;5093394;28;20359;-57
2023/10/22 00:27:42;;;;;;;;;;;23.40;55.70;;;;;;5092976;28;20018;-57
2023/10/22 00:30:09;;;;;;;;;;;23.40;55.70;;;;;;5093128;28;19971;-58
2023/10/22 00:32:36;;;;;;;;;;;23.40;55.70;;;;;;5093905;28;19924;-57
2023/10/22 00:35:03;;;;;;;;;;;23.40;55.70;;;;;;5097148;28;19924;-57
2023/10/22 00:37:30;;;;;;;;;;;23.40;55.70;;;;;;5082483;28;19925;-57
2023/10/22 00:39:57;;;;;;;;;;;23.40;55.70;;;;;;5076432;28;20392;-58
2023/10/22 00:42:24;;;;;;;;;;;23.40;55.60;;;;;;5076294;28;19998;-57
2023/10/22 00:44:51;;;;;;;;;;;23.40;55.60;;;;;;5096334;28;20027;-57
2023/10/22 00:47:18;;;;;;;;;;;23.40;55.60;;;;;;5096587;28;19931;-57
2023/10/22 00:49:45;;;;;;;;;;;23.40;55.60;;;;;;5096465;28;19963;-57
2023/10/22 00:52:14;;;;;;;;;;;23.40;55.60;;;;;;5096867;28;20334;-57
2023/10/22 00:54:42;;;;;;;;;;;23.40;55.60;;;;;;5096413;28;20373;-57
2023/10/22 00:57:09;;;;;;;;;;;23.40;55.50;;;;;;5096342;28;19924;-57
2023/10/22 00:59:36;;;;;;;;;;;23.40;55.60;;;;;;5096746;28;20011;-57
2023/10/22 01:02:03;;;;;;;;;;;23.40;55.60;;;;;;5094805;28;20449;-58
2023/10/22 01:04:31;;;;;;;;;;;23.40;55.60;;;;;;5096128;28;19924;-58
2023/10/22 01:06:57;;;;;;;;;;;23.40;55.50;;;;;;5096584;28;19924;-57
2023/10/22 01:09:24;;;;;;;;;;;23.40;56.10;;;;;;5096338;28;19981;-57
2023/10/22 01:11:59;;;;;;;;;;;23.40;55.50;;;;;;5096604;28;19924;-57
2023/10/22 01:14:26;;;;;;;;;;;23.40;55.50;;;;;;5096426;28;19951;-58
2023/10/22 01:16:53;;;;;;;;;;;23.40;55.60;;;;;;5096084;28;19931;-57
2023/10/22 01:19:20;;;;;;;;;;;23.40;55.50;;;;;;5095750;28;19924;-58
2023/10/22 01:21:47;;;;;;;;;;;23.40;55.50;;;;;;5096297;28;19977;-58
2023/10/22 01:24:14;;;;;;;;;;;23.40;55.60;;;;;;5095872;28;20014;-58
2023/10/22 01:26:42;;;;;;;;;;;23.40;55.60;;;;;;5096116;28;20015;-58
2023/10/22 01:29:10;;;;;;;;;;;23.40;55.60;;;;;;5095831;28;19924;-58
2023/10/22 01:31:37;;;;;;;;;;;23.40;55.60;;;;;;5096002;28;20524;-58
2023/10/22 01:34:04;;;;;;;;;;;23.40;56.10;;;;;;5095983;28;19963;-57
2023/10/22 01:36:31;;;;;;;;;;;23.40;55.60;;;;;;5096084;28;19931;-58
2023/10/22 01:38:58;;;;;;;;;;;23.40;55.60;;;;;;5095558;28;19963;-57
2023/10/22 01:41:26;;;;;;;;;;;23.30;55.50;;;;;;5095814;28;19924;-57
2023/10/22 01:43:53;;;;;;;;;;;23.40;55.60;;;;;;5095616;28;19924;-57
2023/10/22 01:46:20;;;;;;;;;;;23.40;55.60;;;;;;5094983;28;20287;-59
2023/10/22 01:48:48;;;;;;;;;;;23.40;55.60;;;;;;5095439;28;19979;-57
2023/10/22 01:51:15;;;;;;;;;;;23.40;55.60;;;;;;5095756;28;19967;-57
2023/10/22 01:53:42;;;;;;;;;;;23.40;55.60;;;;;;5095238;28;19924;-57
2023/10/22 01:56:09;;;;;;;;;;;23.40;55.60;;;;;;5095438;28;19924;-57
2023/10/22 01:58:36;;;;;;;;;;;23.40;55.50;;;;;;5095262;28;19969;-58
2023/10/22 02:01:04;;;;;;;;;;;23.40;55.50;;;;;;5095074;28;19983;-57
2023/10/22 02:03:35;;;;;;;;;;;23.40;55.50;;;;;;5095437;28;19971;-57
2023/10/22 02:06:09;;;;;;;;;;;23.40;55.50;;;;;;5095369;28;19930;-57
2023/10/22 02:08:36;;;;;;;;;;;23.40;55.50;;;;;;5095308;28;19978;-57
2023/10/22 02:11:03;;;;;;;;;;;23.40;56.00;;;;;;5095108;28;19967;-57
2023/10/22 02:13:30;;;;;;;;;;;23.40;55.40;;;;;;5095136;28;19930;-57
2023/10/22 02:15:57;;;;;;;;;;;23.40;55.40;;;;;;5094954;28;20391;-57
2023/10/22 02:18:24;;;;;;;;;;;23.40;55.40;;;;;;5094905;28;19928;-60
2023/10/22 02:20:59;;;;;;;;;;;23.40;55.40;;;;;;5095070;28;19924;-57
2023/10/22 02:23:27;;;;;;;;;;;23.40;55.40;;;;;;5094507;28;19931;-58
2023/10/22 02:25:56;;;;;;;;;;;23.40;55.50;;;;;;5095034;28;20010;-58
2023/10/22 02:28:23;;;;;;;;;;;23.40;55.50;;;;;;5095049;28;19924;-58
2023/10/22 02:30:50;;;;;;;;;;;23.40;55.50;;;;;;5093540;28;20431;-57
2023/10/22 02:33:17;;;;;;;;;;;23.40;55.40;;;;;;5094833;28;19971;-59
2023/10/22 02:35:45;;;;;;;;;;;23.40;55.50;;;;;;5094900;28;19928;-60
2023/10/22 02:38:14;;;;;;;;;;;23.40;55.50;;;;;;5094463;28;19924;-62
2023/10/22 02:40:42;;;;;;;;;;;23.40;55.50;;;;;;5094830;28;20007;-60
2023/10/22 02:43:10;;;;;;;;;;;23.40;55.50;;;;;;5093172;28;20431;-58
2023/10/22 02:45:37;;;;;;;;;;;23.40;55.50;;;;;;5094538;28;19927;-59
2023/10/22 02:48:04;;;;;;;;;;;23.40;55.50;;;;;;5094344;28;20408;-58
2023/10/22 02:50:31;;;;;;;;;;;23.40;55.50;;;;;;5094589;28;19947;-60
2023/10/22 02:52:58;;;;;;;;;;;23.40;55.50;;;;;;5094486;28;19959;-58
2023/10/22 02:55:25;;;;;;;;;;;23.30;55.50;;;;;;5094315;28;19924;-63
2023/10/22 02:57:52;;;;;;;;;;;23.40;55.60;;;;;;5093326;28;20390;-59
2023/10/22 03:00:19;;;;;;;;;;;23.40;55.60;;;;;;5094187;28;20362;-58
2023/10/22 03:03:03;;;;;;;;;;;23.40;55.60;;;;;;5093928;28;20368;-58
2023/10/22 03:05:33;;;;;;;;;;;23.30;55.60;;;;;;5093818;28;20273;-58
2023/10/22 03:08:01;;;;;;;;;;;23.30;55.50;;;;;;5094144;28;19930;-57
2023/10/22 03:10:28;;;;;;;;;;;23.30;55.50;;;;;;5094437;28;20323;-58
2023/10/22 03:12:57;;;;;;;;;;;23.30;55.50;;;;;;5093823;28;19928;-58
2023/10/22 03:15:24;;;;;;;;;;;23.30;55.60;;;;;;5094099;28;19939;-58
2023/10/22 03:17:53;;;;;;;;;;;23.30;55.60;;;;;;5093760;28;19985;-58
2023/10/22 03:20:22;;;;;;;;;;;23.30;55.50;;;;;;5093766;28;20015;-58
2023/10/22 03:22:50;;;;;;;;;;;23.30;55.50;;;;;;5093719;28;20373;-58
2023/10/22 03:25:17;;;;;;;;;;;23.30;55.50;;;;;;5093965;28;20386;-56
2023/10/22 03:27:44;;;;;;;;;;;23.30;55.50;;;;;;5094229;28;19974;-57
2023/10/22 03:30:13;;;;;;;;;;;23.40;55.50;;;;;;5093736;28;20014;-58
2023/10/22 03:32:40;;;;;;;;;;;23.40;55.50;;;;;;5093616;28;19931;-59
2023/10/22 03:35:08;;;;;;;;;;;23.40;55.50;;;;;;5092743;28;19960;-57
2023/10/22 03:37:35;;;;;;;;;;;23.30;55.40;;;;;;5093428;28;19928;-58
2023/10/22 03:40:03;;;;;;;;;;;23.40;55.50;;;;;;5093654;28;20038;-58
2023/10/22 03:42:30;;;;;;;;;;;23.30;55.40;;;;;;5093729;28;19924;-58
2023/10/22 03:44:57;;;;;;;;;;;23.40;55.50;;;;;;5093801;28;19925;-59
2023/10/22 03:47:24;;;;;;;;;;;23.40;55.50;;;;;;5093490;28;20296;-58
2023/10/22 03:49:51;;;;;;;;;;;23.30;55.40;;;;;;5092294;28;20433;-58
2023/10/22 03:52:18;;;;;;;;;;;23.40;55.50;;;;;;5093760;28;20339;-58
2023/10/22 03:54:55;;;;;;;;;;;23.30;55.50;;;;;;5093423;28;20402;-58
2023/10/22 03:57:22;;;;;;;;;;;23.30;55.50;;;;;;5093613;28;19925;-57
2023/10/22 03:59:49;;;;;;;;;;;23.30;55.50;;;;;;5093454;28;19928;-58
2023/10/22 04:02:16;;;;;;;;;;;23.30;55.50;;;;;;5093276;28;19924;-59
2023/10/22 04:04:43;;;;;;;;;;;23.30;55.50;;;;;;5092154;28;19924;-59
2023/10/22 04:07:11;;;;;;;;;;;23.30;55.60;;;;;;5093510;28;20042;-58
2023/10/22 04:09:38;;;;;;;;;;;23.30;55.60;;;;;;5097241;28;20380;-58
2023/10/22 04:12:05;;;;;;;;;;;23.30;55.60;;;;;;5097628;28;20014;-58
2023/10/22 04:14:34;;;;;;;;;;;23.30;55.60;;;;;;5097294;28;20441;-58
2023/10/22 04:17:01;;;;;;;;;;;23.30;55.60;;;;;;5097137;28;19931;-58
2023/10/22 04:19:28;;;;;;;;;;;23.30;55.60;;;;;;5097213;28;19971;-58
2023/10/22 04:21:55;;;;;;;;;;;23.30;55.60;;;;;;5097160;28;19974;-57
2023/10/22 04:24:22;;;;;;;;;;;23.30;55.60;;;;;;5096965;28;19924;-58
2023/10/22 04:26:49;;;;;;;;;;;23.30;55.60;;;;;;5097343;28;20345;-58
2023/10/22 04:29:16;;;;;;;;;;;23.30;55.60;;;;;;5096937;28;19982;-58
2023/10/22 04:31:43;;;;;;;;;;;23.30;55.60;;;;;;5097088;28;19924;-58
2023/10/22 04:34:10;;;;;;;;;;;23.30;55.70;;;;;;5096914;28;19925;-57
2023/10/22 04:36:37;;;;;;;;;;;23.30;55.70;;;;;;5096965;28;19974;-58
2023/10/22 04:39:04;;;;;;;;;;;23.30;55.70;;;;;;5096723;28;19924;-58
2023/10/22 04:41:31;;;;;;;;;;;23.30;55.70;;;;;;5097030;28;19924;-58
2023/10/22 04:43:58;;;;;;;;;;;23.30;55.60;;;;;;5096763;28;19924;-58
2023/10/22 04:46:25;;;;;;;;;;;23.30;55.50;;;;;;5096585;28;19977;-58
2023/10/22 04:48:54;;;;;;;;;;;23.30;55.50;;;;;;5096960;28;19931;-58
2023/10/22 04:51:21;;;;;;;;;;;23.30;55.40;;;;;;5096842;28;19924;-58
2023/10/22 04:53:48;;;;;;;;;;;23.30;55.40;;;;;;5096203;28;19924;-58
2023/10/22 04:56:15;;;;;;;;;;;23.30;55.40;;;;;;5096561;28;20166;-57
2023/10/22 04:58:42;;;;;;;;;;;23.30;55.40;;;;;;5096753;28;19927;-57
2023/10/22 05:01:10;;;;;;;;;;;23.30;55.40;;;;;;5096493;28;19924;-57
2023/10/22 05:03:38;;;;;;;;;;;23.30;55.40;;;;;;5096448;28;19928;-58
2023/10/22 05:06:08;;;;;;;;;;;23.30;55.40;;;;;;5096243;28;19931;-57
2023/10/22 05:08:40;;;;;;;;;;;23.30;55.40;;;;;;5096178;28;19924;-57
2023/10/22 05:11:15;;;;;;;;;;;23.20;55.30;;;;;;5096526;28;19924;-57
2023/10/22 05:13:43;;;;;;;;;;;23.30;55.40;;;;;;5096389;28;19924;-57
2023/10/22 05:16:10;;;;;;;;;;;23.20;55.40;;;;;;5096043;28;20369;-58
2023/10/22 05:18:37;;;;;;;;;;;23.20;55.40;;;;;;5096188;28;20299;-57
2023/10/22 05:21:05;;;;;;;;;;;23.30;55.40;;;;;;5094267;28;19955;-58
2023/10/22 05:23:33;;;;;;;;;;;23.20;55.40;;;;;;5096037;28;20022;-58
2023/10/22 05:26:07;;;;;;;;;;;23.20;55.40;;;;;;5094744;28;19924;-57
2023/10/22 05:28:34;;;;;;;;;;;23.20;55.40;;;;;;5095931;28;19928;-57
2023/10/22 05:31:10;;;;;;;;;;;23.20;55.30;;;;;;5095947;28;19925;-57
2023/10/22 05:33:37;;;;;;;;;;;23.20;55.30;;;;;;5095617;28;19947;-58
2023/10/22 05:36:04;;;;;;;;;;;23.20;55.30;;;;;;5095554;28;20448;-58
2023/10/22 05:38:31;;;;;;;;;;;23.20;55.30;;;;;;5095651;28;19924;-57
2023/10/22 05:40:58;;;;;;;;;;;23.20;55.30;;;;;;5095929;28;19925;-59
2023/10/22 05:43:25;;;;;;;;;;;23.20;55.20;;;;;;5095690;28;19924;-58
2023/10/22 05:45:56;;;;;;;;;;;23.20;55.20;;;;;;5095517;28;19928;-57
2023/10/22 05:48:23;;;;;;;;;;;23.20;55.20;;;;;;5095676;28;19931;-58
2023/10/22 05:50:50;;;;;;;;;;;23.30;55.30;;;;;;5095608;28;19924;-61
2023/10/22 05:53:18;;;;;;;;;;;23.30;55.40;;;;;;5095333;28;19967;-58
2023/10/22 05:55:44;;;;;;;;;;;23.30;55.50;;;;;;5095401;28;20023;-58
2023/10/22 05:58:11;;;;;;;;;;;23.30;55.60;;;;;;5095516;28;19924;-59
2023/10/22 06:00:38;;;;;;;;;;;23.30;55.50;;;;;;5095568;28;19967;-58
2023/10/22 06:03:05;;;;;;;;;;;23.30;55.60;;;;;;5094231;28;19966;-59
2023/10/22 06:05:38;;;;;;;;;;;23.40;55.50;;;;;;5083925;28;19924;-58
2023/10/22 06:08:05;;;;;;;;;;;23.40;55.50;;;;;;5091739;28;19960;-58
2023/10/22 06:10:38;;;;;;;;;;;23.40;55.60;;;;;;5075502;28;19959;-58
2023/10/22 06:13:05;;;;;;;;;;;23.40;55.70;;;;;;5094813;28;20428;-59
2023/10/22 06:15:32;;;;;;;;;;;23.50;55.80;;;;;;5093049;28;19979;-58
2023/10/22 06:17:59;;;;;;;;;;;23.50;55.80;;;;;;5074735;28;20429;-58
2023/10/22 06:20:28;;;;;;;;;;;23.60;55.70;;;;;;5075348;28;19924;-58
2023/10/22 06:22:56;;;;;;;;;;;23.60;55.40;;;;;;5074811;28;20011;-58
2023/10/22 06:25:23;;;;;;;;;;;23.60;55.10;;;;;;5074826;28;19932;-58
2023/10/22 06:27:51;;;;;;;;;;;23.60;54.90;;;;;;5074634;28;19975;-58
2023/10/22 06:30:22;;;;;;;;;;;23.60;54.80;;;;;;5074649;28;19997;-58
2023/10/22 06:32:52;;;;;;;;;;;23.60;54.70;;;;;;5078801;28;20265;-58
2023/10/22 06:35:20;;;;;;;;;;;23.60;54.60;;;;;;5076687;28;19932;-58
2023/10/22 06:37:47;;;;;;;;;;;23.70;54.50;;;;;;5074573;28;20329;-57
2023/10/22 06:40:14;;;;;;;;;;;23.70;54.50;;;;;;5074282;28;19924;-58
2023/10/22 06:42:41;;;;;;;;;;;23.70;54.50;;;;;;5077000;28;19928;-58
2023/10/22 06:45:09;;;;;;;;;;;23.70;54.40;;;;;;5093527;28;19924;-59
2023/10/22 06:47:36;;;;;;;;;;;23.70;54.30;;;;;;5094209;28;20441;-58
2023/10/22 06:50:04;;;;;;;;;;;23.70;54.20;;;;;;5094541;28;20019;-58
2023/10/22 06:52:31;;;;;;;;;;;23.70;54.20;;;;;;5094242;28;19936;-58
2023/10/22 06:54:58;;;;;;;;;;;23.70;54.10;;;;;;5094305;28;19958;-58
2023/10/22 06:57:25;;;;;;;;;;;23.80;54.10;;;;;;5087506;28;19925;-58
2023/10/22 06:59:52;;;;;;;;;;;23.80;54.10;;;;;;5073034;28;20331;-59
2023/10/22 07:02:19;;;;;;;;;;;23.80;54.60;;;;;;5073970;28;19925;-58
2023/10/22 07:04:50;;;;;;;;;;;23.90;54.00;;;;;;5074234;28;20327;-59
2023/10/22 07:07:17;;;;;;;;;;;23.80;53.90;;;;;;5073541;28;19958;-58
2023/10/22 07:09:44;;;;;;;;;;;23.80;53.90;;;;;;5074138;28;20335;-59
2023/10/22 07:12:11;;;;;;;;;;;23.90;53.90;;;;;;5073674;28;20456;-58
2023/10/22 07:14:38;;;;;;;;;;;23.90;53.90;;;;;;5074048;28;19928;-58
2023/10/22 07:17:05;;;;;;;;;;;23.90;53.90;;;;;;5073733;28;19925;-58
2023/10/22 07:19:32;;;;;;;;;;;23.90;53.90;;;;;;5073906;28;19977;-58
2023/10/22 07:21:59;;;;;;;;;;;23.90;53.90;;;;;;5073720;28;19925;-58
2023/10/22 07:24:26;;;;;;;;;;;23.90;53.80;;;;;;5093829;28;19967;-58
2023/10/22 07:26:54;;;;;;;;;;;23.90;53.80;;;;;;5094123;28;19931;-58
2023/10/22 07:29:21;;;;;;;;;;;23.90;53.80;;;;;;5093568;28;19924;-58
2023/10/22 07:31:48;;;;;;;;;;;23.90;53.70;;;;;;5089082;28;19928;-58
2023/10/22 07:34:15;;;;;;;;;;;23.90;53.70;;;;;;5074019;28;19928;-59
2023/10/22 07:36:42;;;;;;;;;;;24.00;53.70;;;;;;5080448;28;20300;-58
2023/10/22 07:39:11;;;;;;;;;;;24.00;53.70;;;;;;5093872;28;19924;-58
2023/10/22 07:41:38;;;;;;;;;;;24.00;53.70;;;;;;5078095;28;20305;-58
2023/10/22 07:44:05;;;;;;;;;;;24.00;53.60;;;;;;5079751;28;20351;-58
2023/10/22 07:46:32;;;;;;;;;;;24.00;53.60;;;;;;5081431;28;19924;-59
2023/10/22 07:48:59;;;;;;;;;;;24.10;53.70;;;;;;5079989;28;19924;-58
2023/10/22 07:51:27;;;;;;;;;;;24.10;53.60;;;;;;5099541;28;19924;-58
2023/10/22 07:53:54;;;;;;;;;;;24.10;53.60;;;;;;5088358;28;19924;-58
2023/10/22 07:56:22;;;;;;;;;;;24.10;53.60;;;;;;5079924;28;20380;-59
2023/10/22 07:58:49;;;;;;;;;;;24.10;53.60;;;;;;5091703;28;19931;-58
2023/10/22 08:01:16;;;;;;;;;;;24.10;53.60;;;;;;5079783;28;20440;-58
2023/10/22 08:03:43;;;;;;;;;;;24.10;53.60;;;;;;5079715;28;20373;-58
2023/10/22 08:06:10;;;;;;;;;;;24.10;53.60;;;;;;5079807;28;20353;-60
2023/10/22 08:08:37;;;;;;;;;;;24.10;53.50;;;;;;5092010;28;19935;-59
2023/10/22 08:11:05;;;;;;;;;;;24.10;53.60;;;;;;5100190;28;19974;-58
2023/10/22 08:13:32;;;;;;;;;;;24.20;53.60;;;;;;5082692;28;19924;-57
2023/10/22 08:16:03;;;;;;;;;;;24.10;53.50;;;;;;5079876;28;19994;-58
2023/10/22 08:18:30;;;;;;;;;;;24.20;53.60;;;;;;5079930;28;19924;-57
2023/10/22 08:21:01;;;;;;;;;;;24.20;53.60;;;;;;5080053;28;19929;-57
2023/10/22 08:23:32;;;;;;;;;;;24.20;53.60;;;;;;5093128;28;19979;-58
2023/10/22 08:25:59;;;;;;;;;;;24.20;53.50;;;;;;5080049;28;19946;-58
2023/10/22 08:28:26;;;;;;;;;;;24.20;53.70;;;;;;5085665;28;19925;-59
2023/10/22 08:30:53;;;;;;;;;;;24.20;53.40;;;;;;5099881;28;19924;-58
2023/10/22 08:33:20;;;;;;;;;;;24.20;53.40;;;;;;5098565;28;19931;-58
2023/10/22 08:35:47;;;;;;;;;;;24.20;53.40;;;;;;5099893;28;19931;-58
2023/10/22 08:38:15;;;;;;;;;;;24.20;53.30;;;;;;5100067;28;20019;-58
2023/10/22 08:40:43;;;;;;;;;;;24.30;53.40;;;;;;5099832;28;20411;-58
2023/10/22 08:43:17;;;;;;;;;;;24.30;53.30;;;;;;5083775;28;19924;-58
2023/10/22 08:45:51;;;;;;;;;;;24.30;53.30;;;;;;5079828;28;19925;-58
2023/10/22 08:48:19;;;;;;;;;;;24.30;53.20;;;;;;5078262;28;20563;-58
2023/10/22 08:50:48;;;;;;;;;;;24.30;53.20;;;;;;5079384;28;19928;-58
2023/10/22 08:53:15;;;;;;;;;;;24.30;53.10;;;;;;5079384;28;19924;-58
2023/10/22 08:55:44;;;;;;;;;;;24.30;53.00;;;;;;5076796;28;19924;-58
2023/10/22 08:58:14;;;;;;;;;;;24.40;53.00;;;;;;5076306;28;19978;-58
2023/10/22 09:00:45;;;;;;;;;;;24.40;53.00;;;;;;5076202;28;19971;-58
2023/10/22 09:03:13;;;;;;;;;;;24.40;52.90;;;;;;5075968;28;20395;-57
2023/10/22 09:05:40;;;;;;;;;;;24.40;52.90;;;;;;5076071;28;20477;-58
2023/10/22 09:08:09;;;;;;;;;;;24.40;52.90;;;;;;5091809;28;19935;-58
2023/10/22 09:10:37;;;;;;;;;;;24.40;52.80;;;;;;5096694;28;19924;-58
2023/10/22 09:13:11;;;;;;;;;;;24.50;52.90;;;;;;5096434;28;19946;-58
2023/10/22 09:15:39;;;;;;;;;;;24.50;52.90;;;;;;5096039;28;19935;-58
2023/10/22 09:18:06;;;;;;;;;;;24.50;52.80;;;;;;5096084;28;20402;-58
2023/10/22 09:20:37;;;;;;;;;;;24.50;52.80;;;;;;5076475;28;19924;-58
2023/10/22 09:23:14;;;;;;;;;;;24.50;52.70;;;;;;5075767;28;19924;-57
2023/10/22 09:25:42;;;;;;;;;;;24.50;52.70;;;;;;5075790;28;20015;-58
2023/10/22 09:28:18;;;;;;;;;;;24.50;52.60;;;;;;5075519;28;19931;-58
2023/10/22 09:30:45;;;;;;;;;;;24.60;52.70;;;;;;5075728;28;19976;-57
2023/10/22 09:33:15;;;;;;;;;;;24.60;52.70;;;;;;5075545;28;19996;-57
2023/10/22 09:35:55;;;;;;;;;;;24.60;52.70;;;;;;5075783;28;19924;-58
2023/10/22 09:38:39;;;;;;;;;;;24.60;52.60;;;;;;5075771;28;19925;-57
2023/10/22 09:41:06;;;;;;;;;;;24.60;52.60;;;;;;5075748;28;20356;-57
2023/10/22 09:43:33;;;;;;;;;;;24.60;52.50;;;;;;5075506;28;19925;-58
2023/10/22 09:46:00;;;;;;;;;;;24.70;52.50;;;;;;5075684;28;19924;-58
2023/10/22 09:48:29;;;;;;;;;;;24.70;52.40;;;;;;5075437;28;19925;-58
2023/10/22 09:50:57;;;;;;;;;;;24.70;52.30;;;;;;5075591;28;19978;-58
2023/10/22 09:53:26;;;;;;;;;;;24.70;52.30;;;;;;5075260;28;20373;-58
2023/10/22 09:55:54;;;;;;;;;;;24.70;52.30;;;;;;5075366;28;19924;-58
2023/10/22 09:58:26;;;;;;;;;;;24.70;52.20;;;;;;5075337;28;20444;-58
2023/10/22 10:00:53;;;;;;;;;;;24.70;52.20;;;;;;5075434;28;19967;-58
2023/10/22 10:03:20;;;;;;;;;;;24.70;52.20;;;;;;5075169;28;19976;-58
2023/10/22 10:05:48;;;;;;;;;;;24.80;52.20;;;;;;5074571;28;19936;-58
2023/10/22 10:08:15;;;;;;;;;;;24.80;52.10;;;;;;5075307;28;20297;-58
2023/10/22 10:10:45;;;;;;;;;;;24.80;52.00;;;;;;5075118;28;19978;-58
2023/10/22 10:13:12;;;;;;;;;;;24.80;52.00;;;;;;5075086;28;19924;-58
2023/10/22 10:15:39;;;;;;;;;;;24.80;52.00;;;;;;5073472;28;19979;-57
2023/10/22 10:18:09;;;;;;;;;;;24.90;51.90;;;;;;5075108;28;19924;-58
2023/10/22 10:20:39;;;;;;;;;;;24.90;51.90;;;;;;5074612;28;20381;-57
2023/10/22 10:23:08;;;;;;;;;;;24.90;51.80;;;;;;5074825;28;20011;-57
2023/10/22 10:25:36;;;;;;;;;;;24.90;51.70;;;;;;5074707;28;19967;-57
2023/10/22 10:28:06;;;;;;;;;;;24.90;51.70;;;;;;5074434;28;19932;-57
2023/10/22 10:30:34;;;;;;;;;;;24.90;51.70;;;;;;5074378;28;19925;-57
2023/10/22 10:33:01;;;;;;;;;;;24.90;51.60;;;;;;5074459;28;20006;-57
2023/10/22 10:35:45;;;;;;;;;;;24.90;51.50;;;;;;5074572;28;19928;-57
2023/10/22 10:38:18;;;;;;;;;;;24.90;51.50;;;;;;5074523;28;19924;-57
2023/10/22 10:40:52;;;;;;;;;;;24.90;51.50;;;;;;5074563;28;19925;-57
2023/10/22 10:43:20;;;;;;;;;;;25.00;51.50;;;;;;5074615;28;19928;-57
2023/10/22 10:46:07;;;;;;;;;;;25.00;51.30;;;;;;5074319;28;19924;-58
2023/10/22 10:48:52;;;;;;;;;;;25.10;51.30;;;;;;5074089;28;20270;-60
2023/10/22 10:51:24;;;;;;;;;;;25.10;51.20;;;;;;5074441;28;20339;-57
2023/10/22 10:54:12;;;;;;;;;;;25.10;51.10;;;;;;5074130;28;19948;-58
2023/10/22 10:56:48;;;;;;;;;;;25.10;50.90;;;;;;5074075;28;19924;-58
2023/10/22 10:59:30;;;;;;;;;;;25.20;50.80;;;;;;5074441;28;20325;-58
2023/10/22 11:02:08;;;;;;;;;;;25.20;50.70;;;;;;5074204;28;19928;-58
2023/10/22 11:04:36;;;;;;;;;;;25.20;50.60;;;;;;5074134;28;19933;-65
2023/10/22 11:07:06;;;;;;;;;;;25.20;50.60;;;;;;5074051;28;20031;-61
2023/10/22 11:09:38;;;;;;;;;;;25.30;50.60;;;;;;5079166;28;20403;-58
2023/10/22 11:12:06;;;;;;;;;;;25.30;51.00;;;;;;5093964;28;19928;-61
2023/10/22 11:14:37;;;;;;;;;;;25.40;50.50;;;;;;5078430;28;19978;-60
2023/10/22 11:17:04;;;;;;;;;;;25.30;50.30;;;;;;5073142;28;20258;-58
2023/10/22 11:19:32;;;;;;;;;;;25.40;50.30;;;;;;5073466;28;20451;-61
2023/10/22 11:21:59;;;;;;;;;;;25.40;50.30;;;;;;5073627;28;20478;-58
2023/10/22 11:24:30;;;;;;;;;;;25.40;50.30;;;;;;5073978;28;19959;-58
2023/10/22 11:26:58;;;;;;;;;;;25.40;50.40;;;;;;5074050;28;19924;-58
2023/10/22 11:29:25;;;;;;;;;;;25.30;50.30;;;;;;5073355;28;19924;-59
2023/10/22 11:31:53;;;;;;;;;;;25.40;50.40;;;;;;5073935;28;19963;-58
2023/10/22 11:34:20;;;;;;;;;;;25.30;50.40;;;;;;5076993;28;20051;-58
2023/10/22 11:36:47;;;;;;;;;;;25.30;50.40;;;;;;5093378;28;20010;-58
2023/10/22 11:39:15;;;;;;;;;;;25.30;50.40;;;;;;5093643;28;19974;-58
2023/10/22 11:41:58;;;;;;;;;;;25.30;50.40;;;;;;5093832;28;19924;-58
2023/10/22 11:44:32;;;;;;;;;;;25.30;50.40;;;;;;5093508;28;19924;-59
2023/10/22 11:46:59;;;;;;;;;;;25.30;50.40;;;;;;5093962;28;19935;-58
2023/10/22 11:49:26;;;;;;;;;;;25.30;50.40;;;;;;5093340;28;19974;-58
2023/10/22 11:51:53;;;;;;;;;;;25.30;50.30;;;;;;5092901;28;19960;-58
2023/10/22 11:54:40;;;;;;;;;;;25.30;50.30;;;;;;5084032;28;19983;-58
2023/10/22 11:57:07;;;;;;;;;;;25.30;50.30;;;;;;5073794;28;19971;-58
2023/10/22 11:59:34;;;;;;;;;;;25.30;50.30;;;;;;5073238;28;20015;-58
2023/10/22 12:02:02;;;;;;;;;;;25.30;50.30;;;;;;5080763;28;20364;-58
2023/10/22 12:04:29;;;;;;;;;;;25.30;50.30;;;;;;5093550;28;20461;-58
2023/10/22 12:06:56;;;;;;;;;;;25.30;50.30;;;;;;5093309;28;19925;-58
2023/10/22 12:09:23;;;;;;;;;;;25.30;50.30;;;;;;5091977;28;20431;-58
2023/10/22 12:11:53;;;;;;;;;;;25.20;50.30;;;;;;5088437;28;19931;-58
2023/10/22 12:14:20;;;;;;;;;;;25.20;50.30;;;;;;5073401;28;20281;-59
2023/10/22 12:16:47;;;;;;;;;;;25.20;50.30;;;;;;5071962;28;20399;-59
2023/10/22 12:19:14;;;;;;;;;;;25.20;50.30;;;;;;5073072;28;19931;-58
2023/10/22 12:21:41;;;;;;;;;;;25.20;50.30;;;;;;5073324;28;19929;-58
2023/10/22 12:24:08;;;;;;;;;;;25.20;50.30;;;;;;5073527;28;19940;-61
2023/10/22 12:26:52;;;;;;;;;;;25.20;50.30;;;;;;5086839;28;20346;-58
2023/10/22 12:29:19;;;;;;;;;;;25.20;50.30;;;;;;5094802;28;19978;-58
2023/10/22 12:31:49;;;;;;;;;;;25.20;50.30;;;;;;5097189;28;19965;-58
2023/10/22 12:34:16;;;;;;;;;;;25.20;50.30;;;;;;5097242;28;20035;-58
2023/10/22 12:36:44;;;;;;;;;;;25.20;50.40;;;;;;5096997;28;19946;-58
2023/10/22 12:39:11;;;;;;;;;;;25.20;50.40;;;;;;5096824;28;20022;-66
2023/10/22 12:41:38;;;;;;;;;;;25.10;50.30;;;;;;5094183;28;19997;-59
2023/10/22 12:44:05;;;;;;;;;;;25.20;51.00;;;;;;5076525;28;19960;-59
2023/10/22 12:46:32;;;;;;;;;;;25.10;50.30;;;;;;5076515;28;19924;-58
2023/10/22 12:48:59;;;;;;;;;;;25.10;50.30;;;;;;5076282;28;20380;-58
2023/10/22 12:51:29;;;;;;;;;;;25.10;50.30;;;;;;5076717;28;19987;-58
2023/10/22 12:53:56;;;;;;;;;;;25.20;50.30;;;;;;5076636;28;19924;-58
2023/10/22 12:56:23;;;;;;;;;;;25.20;50.30;;;;;;5076257;28;20015;-59
2023/10/22 12:58:54;;;;;;;;;;;25.20;50.20;;;;;;5076286;28;20405;-59
2023/10/22 13:01:22;;;;;;;;;;;25.20;50.10;;;;;;5076542;28;20010;-61
2023/10/22 13:03:49;;;;;;;;;;;25.20;50.10;;;;;;5096170;28;19928;-58
2023/10/22 13:06:17;;;;;;;;;;;25.20;50.50;;;;;;5096414;28;19930;-61
2023/10/22 13:08:44;;;;;;;;;;;25.20;49.90;;;;;;5096282;28;19963;-62
2023/10/22 13:11:11;;;;;;;;;;;25.30;49.90;;;;;;5096665;28;20330;-58
2023/10/22 13:13:38;;;;;;;;;;;25.30;49.80;;;;;;5096478;28;20050;-61
2023/10/22 13:16:05;;;;;;;;;;;25.30;49.90;;;;;;5096446;28;19924;-64
2023/10/22 13:18:32;;;;;;;;;;;25.30;49.90;;;;;;5096424;28;20006;-62
2023/10/22 13:20:59;;;;;;;;;;;25.20;49.80;;;;;;5096505;28;20284;-60
2023/10/22 13:23:26;;;;;;;;;;;25.20;49.80;;;;;;5096165;28;19924;-59
2023/10/22 13:25:53;;;;;;;;;;;25.30;49.80;;;;;;5096495;28;19968;-62
2023/10/22 13:28:20;;;;;;;;;;;25.20;49.70;;;;;;5095841;28;19928;-58
2023/10/22 13:30:47;;;;;;;;;;;25.30;49.70;;;;;;5096372;28;19931;-62
2023/10/22 13:33:14;;;;;;;;;;;25.20;49.70;;;;;;5095032;28;20311;-62
2023/10/22 13:35:41;;;;;;;;;;;25.30;49.70;;;;;;5096051;28;20007;-59
2023/10/22 13:38:08;;;;;;;;;;;25.30;49.70;;;;;;5095697;28;19977;-58
2023/10/22 13:40:39;;;;;;;;;;;25.30;49.70;;;;;;5094871;28;19928;-58
2023/10/22 13:43:06;;;;;;;;;;;25.20;49.60;;;;;;5096014;28;19932;-59
2023/10/22 13:45:35;;;;;;;;;;;25.30;49.70;;;;;;5095777;28;20330;-58
2023/10/22 13:48:02;;;;;;;;;;;25.20;49.60;;;;;;5095395;28;19924;-58
2023/10/22 13:50:29;;;;;;;;;;;25.20;49.60;;;;;;5095547;28;19924;-58
2023/10/22 13:52:56;;;;;;;;;;;25.20;49.60;;;;;;5095653;28;19968;-58
2023/10/22 13:55:23;;;;;;;;;;;25.20;49.60;;;;;;5095612;28;20031;-58
2023/10/22 13:57:54;;;;;;;;;;;25.20;49.70;;;;;;5095700;28;20346;-58
2023/10/22 14:00:21;;;;;;;;;;;25.20;49.70;;;;;;5095283;28;19928;-58
2023/10/22 14:02:48;;;;;;;;;;;25.10;49.70;;;;;;5094910;28;19924;-58
2023/10/22 14:05:16;;;;;;;;;;;25.20;49.80;;;;;;5095579;28;19928;-58
2023/10/22 14:07:44;;;;;;;;;;;25.10;49.80;;;;;;5094812;28;19924;-58
2023/10/22 14:10:11;;;;;;;;;;;25.10;49.90;;;;;;5095859;28;20330;-58
2023/10/22 14:12:38;;;;;;;;;;;25.10;49.90;;;;;;5094748;28;20418;-58
2023/10/22 14:15:07;;;;;;;;;;;25.10;50.00;;;;;;5095339;28;19924;-58
2023/10/22 14:17:34;;;;;;;;;;;25.10;50.00;;;;;;5095030;28;19924;-58
2023/10/22 14:20:01;;;;;;;;;;;25.10;50.00;;;;;;5094924;28;19939;-58
2023/10/22 14:22:28;;;;;;;;;;;25.10;50.10;;;;;;5095057;28;19997;-58